Time;durP1;ratioP1;P1;durP2;ratioP2;P2;SDS_P1;SDS_P2;PMS_P1;PMS_P2;Temp;Humidity;BMP_temperature;BMP_pressure;BME280_temperature;BME280_humidity;BME280_pressure;Samples;Min_cycle;Max_cycle;Signal;HPM_P1;HPM_P2
2023/08/14 00:01:16;;;;;;;;;;;21.40;99.90;;;;;;4594443;19;19978;-59
2023/08/14 00:02:48;;;;;;;;;;;21.40;99.90;;;;;;4593436;19;19914;-58
2023/08/14 00:04:20;;;;;;;;;;;21.40;99.90;;;;;;4594660;19;19915;-59
2023/08/14 00:05:53;;;;;;;;;;;21.40;99.90;;;;;;4594496;19;19930;-59
2023/08/14 00:07:24;;;;;;;;;;;21.40;99.90;;;;;;4594503;19;20222;-59
2023/08/14 00:08:55;;;;;;;;;;;21.40;99.90;;;;;;4594743;19;19915;-59
2023/08/14 00:10:29;;;;;;;;;;;21.40;99.90;;;;;;4594653;19;19915;-59
2023/08/14 00:12:01;;;;;;;;;;;21.40;99.90;;;;;;4593596;19;19926;-59
2023/08/14 00:13:47;;;;;;;;;;;21.40;99.90;;;;;;4594546;19;19914;-59
2023/08/14 00:15:19;;;;;;;;;;;21.40;99.90;;;;;;4594690;19;20323;-59
2023/08/14 00:16:50;;;;;;;;;;;21.40;99.90;;;;;;4593331;19;19918;-59
2023/08/14 00:18:21;;;;;;;;;;;21.40;99.90;;;;;;4594573;19;19911;-59
2023/08/14 00:19:52;;;;;;;;;;;21.40;99.90;;;;;;4594454;19;19919;-59
2023/08/14 00:21:24;;;;;;;;;;;21.40;99.90;;;;;;4593962;19;19918;-59
2023/08/14 00:22:55;;;;;;;;;;;21.30;99.90;;;;;;4594414;19;19919;-59
2023/08/14 00:24:28;;;;;;;;;;;21.30;99.90;;;;;;4594423;19;19919;-59
2023/08/14 00:26:00;;;;;;;;;;;21.30;99.90;;;;;;4594310;19;19943;-59
2023/08/14 00:27:31;;;;;;;;;;;21.30;99.90;;;;;;4594390;19;19937;-59
2023/08/14 00:29:03;;;;;;;;;;;21.30;99.90;;;;;;4594298;19;19919;-59
2023/08/14 00:30:34;;;;;;;;;;;21.30;99.90;;;;;;4594286;19;19941;-59
2023/08/14 00:32:05;;;;;;;;;;;21.30;99.90;;;;;;4593105;19;19921;-59
2023/08/14 00:33:37;;;;;;;;;;;21.30;99.90;;;;;;4594214;19;19961;-59
2023/08/14 00:35:08;;;;;;;;;;;21.30;99.90;;;;;;4594145;19;19918;-59
2023/08/14 00:36:40;;;;;;;;;;;21.30;99.90;;;;;;4593229;19;19970;-59
2023/08/14 00:38:11;;;;;;;;;;;21.30;99.90;;;;;;4594110;19;19952;-59
2023/08/14 00:39:42;;;;;;;;;;;21.30;99.90;;;;;;4594141;19;19914;-59
2023/08/14 00:41:15;;;;;;;;;;;21.30;99.90;;;;;;4593882;19;19942;-59
2023/08/14 00:42:47;;;;;;;;;;;21.30;99.90;;;;;;4594401;19;19922;-59
2023/08/14 00:44:18;;;;;;;;;;;21.30;99.90;;;;;;4593954;19;19914;-59
2023/08/14 00:45:51;;;;;;;;;;;21.30;99.90;;;;;;4593952;19;19914;-59
2023/08/14 00:47:22;;;;;;;;;;;21.30;99.90;;;;;;4593941;19;19914;-59
2023/08/14 00:48:53;;;;;;;;;;;21.30;99.90;;;;;;4593934;19;20243;-59
2023/08/14 00:50:24;;;;;;;;;;;21.30;99.90;;;;;;4593874;19;19979;-59
2023/08/14 00:51:57;;;;;;;;;;;21.30;99.90;;;;;;4591405;19;20302;-59
2023/08/14 00:53:29;;;;;;;;;;;21.30;99.90;;;;;;4592522;19;19910;-59
2023/08/14 00:55:01;;;;;;;;;;;21.30;99.90;;;;;;4593340;19;19918;-59
2023/08/14 00:56:33;;;;;;;;;;;21.30;99.90;;;;;;4592866;19;20237;-59
2023/08/14 00:58:04;;;;;;;;;;;21.30;99.90;;;;;;4592389;19;19914;-59
2023/08/14 00:59:35;;;;;;;;;;;21.30;99.90;;;;;;4592340;19;19942;-60
2023/08/14 01:01:07;;;;;;;;;;;21.30;99.90;;;;;;4592305;19;19946;-59
2023/08/14 01:02:38;;;;;;;;;;;21.30;99.90;;;;;;4591385;19;19922;-59
2023/08/14 01:04:09;;;;;;;;;;;21.30;99.90;;;;;;4592249;19;20255;-59
2023/08/14 01:05:41;;;;;;;;;;;21.30;99.90;;;;;;4593058;19;19933;-59
2023/08/14 01:07:12;;;;;;;;;;;21.30;99.90;;;;;;4593535;19;19915;-59
2023/08/14 01:08:46;;;;;;;;;;;21.30;99.90;;;;;;4593534;19;19950;-59
2023/08/14 01:10:17;;;;;;;;;;;21.30;99.90;;;;;;4592084;19;19968;-59
2023/08/14 01:12:08;;;;;;;;;;;21.30;99.90;;;;;;4591950;19;20208;-59
2023/08/14 01:13:48;;;;;;;;;;;21.30;99.90;;;;;;4593111;19;19919;-59
2023/08/14 01:15:21;;;;;;;;;;;21.30;99.90;;;;;;4593267;19;20314;-59
2023/08/14 01:16:54;;;;;;;;;;;21.30;99.90;;;;;;4592337;19;19922;-59
2023/08/14 01:18:26;;;;;;;;;;;21.30;99.90;;;;;;4591901;19;19919;-59
2023/08/14 01:19:58;;;;;;;;;;;21.30;99.90;;;;;;4592898;19;19919;-59
2023/08/14 01:21:42;;;;;;;;;;;21.30;99.90;;;;;;4591285;19;19917;-59
2023/08/14 01:23:36;;;;;;;;;;;21.30;99.90;;;;;;4593029;19;19938;-59
2023/08/14 01:25:26;;;;;;;;;;;21.30;99.90;;;;;;4592844;19;19918;-59
2023/08/14 01:26:58;;;;;;;;;;;21.30;99.90;;;;;;4593136;19;19942;-59
2023/08/14 01:28:30;;;;;;;;;;;21.30;99.90;;;;;;4591774;19;19918;-59
2023/08/14 01:30:03;;;;;;;;;;;21.30;99.90;;;;;;4592633;19;19925;-59
2023/08/14 01:31:34;;;;;;;;;;;21.30;99.90;;;;;;4592380;19;19915;-59
2023/08/14 01:33:05;;;;;;;;;;;21.30;99.90;;;;;;4593039;19;19918;-59
2023/08/14 01:34:36;;;;;;;;;;;21.30;99.90;;;;;;4592981;19;19922;-59
2023/08/14 01:36:17;;;;;;;;;;;21.30;99.90;;;;;;4592447;19;20315;-59
2023/08/14 01:37:54;;;;;;;;;;;21.30;99.90;;;;;;4593340;19;19927;-59
2023/08/14 01:39:29;;;;;;;;;;;21.30;99.90;;;;;;4592913;19;20287;-59
2023/08/14 01:41:09;;;;;;;;;;;21.30;99.90;;;;;;4591501;19;19936;-59
2023/08/14 01:42:40;;;;;;;;;;;21.30;99.90;;;;;;4591115;19;19922;-59
2023/08/14 01:44:17;;;;;;;;;;;21.30;99.90;;;;;;4591404;19;19911;-59
2023/08/14 01:45:48;;;;;;;;;;;21.30;99.90;;;;;;4592466;19;19986;-60
2023/08/14 01:47:19;;;;;;;;;;;21.30;99.90;;;;;;4592746;19;19922;-59
2023/08/14 01:48:51;;;;;;;;;;;21.30;99.90;;;;;;4591415;19;19922;-59
2023/08/14 01:50:22;;;;;;;;;;;21.30;99.90;;;;;;4592275;19;19922;-59
2023/08/14 01:51:53;;;;;;;;;;;21.30;99.90;;;;;;4591877;19;19915;-59
2023/08/14 01:53:25;;;;;;;;;;;21.30;99.90;;;;;;4591281;19;19918;-59
2023/08/14 01:55:03;;;;;;;;;;;21.30;99.90;;;;;;4591362;19;19922;-59
2023/08/14 01:56:35;;;;;;;;;;;21.30;99.90;;;;;;4591544;19;19918;-59
2023/08/14 01:58:07;;;;;;;;;;;21.30;99.90;;;;;;4592598;19;19915;-59
2023/08/14 01:59:43;;;;;;;;;;;21.30;99.90;;;;;;4592700;19;19987;-59
2023/08/14 02:01:15;;;;;;;;;;;21.30;99.90;;;;;;4592796;19;20298;-59
2023/08/14 02:02:48;;;;;;;;;;;21.30;99.90;;;;;;4590365;19;19931;-59
2023/08/14 02:04:19;;;;;;;;;;;21.30;99.90;;;;;;4592047;19;19915;-59
2023/08/14 02:05:50;;;;;;;;;;;21.30;99.90;;;;;;4592731;19;19936;-59
2023/08/14 02:07:23;;;;;;;;;;;21.30;99.90;;;;;;4592778;19;20294;-59
2023/08/14 02:08:54;;;;;;;;;;;21.30;99.90;;;;;;4592788;19;19911;-59
2023/08/14 02:10:27;;;;;;;;;;;21.30;99.90;;;;;;4592790;19;19933;-59
2023/08/14 02:11:59;;;;;;;;;;;21.30;99.90;;;;;;4591725;19;20207;-59
2023/08/14 02:13:30;;;;;;;;;;;21.30;99.90;;;;;;4592749;19;20219;-59
2023/08/14 02:15:01;;;;;;;;;;;21.30;99.90;;;;;;4592687;19;19915;-59
2023/08/14 02:16:36;;;;;;;;;;;21.30;99.90;;;;;;4591945;19;19974;-59
2023/08/14 02:18:07;;;;;;;;;;;21.30;99.90;;;;;;4591145;19;19924;-59
2023/08/14 02:19:39;;;;;;;;;;;21.30;99.90;;;;;;4591761;19;19915;-59
2023/08/14 02:21:12;;;;;;;;;;;21.30;99.90;;;;;;4592248;19;20231;-59
2023/08/14 02:22:46;;;;;;;;;;;21.30;99.90;;;;;;4592094;19;19919;-59
2023/08/14 02:24:18;;;;;;;;;;;21.30;99.90;;;;;;4592275;19;19922;-59
2023/08/14 02:25:53;;;;;;;;;;;21.40;99.90;;;;;;4592246;19;19922;-60
2023/08/14 02:27:25;;;;;;;;;;;21.40;99.90;;;;;;4592221;19;19918;-59
2023/08/14 02:28:57;;;;;;;;;;;21.40;99.90;;;;;;4592301;19;19966;-60
2023/08/14 02:30:30;;;;;;;;;;;21.40;99.90;;;;;;4590779;19;20316;-59
2023/08/14 02:32:03;;;;;;;;;;;21.40;99.90;;;;;;4590743;19;19926;-59
2023/08/14 02:33:35;;;;;;;;;;;21.40;99.90;;;;;;4592099;19;19975;-59
2023/08/14 02:35:08;;;;;;;;;;;21.40;99.90;;;;;;4592409;19;19978;-59
2023/08/14 02:36:40;;;;;;;;;;;21.40;99.90;;;;;;4591149;19;19914;-59
2023/08/14 02:38:11;;;;;;;;;;;21.40;99.90;;;;;;4592060;19;19922;-59
2023/08/14 02:39:43;;;;;;;;;;;21.40;99.90;;;;;;4592007;19;20325;-59
2023/08/14 02:41:14;;;;;;;;;;;21.50;99.90;;;;;;4591862;19;19911;-59
2023/08/14 02:42:46;;;;;;;;;;;21.50;99.90;;;;;;4592408;19;19911;-59
2023/08/14 02:44:18;;;;;;;;;;;21.50;99.90;;;;;;4592020;19;20299;-59
2023/08/14 02:45:49;;;;;;;;;;;21.50;99.90;;;;;;4591042;19;19930;-59
2023/08/14 02:47:22;;;;;;;;;;;21.50;99.90;;;;;;4590836;19;20287;-59
2023/08/14 02:48:54;;;;;;;;;;;21.50;99.90;;;;;;4591524;19;19979;-59
2023/08/14 02:50:26;;;;;;;;;;;21.50;99.90;;;;;;4591447;19;20230;-59
2023/08/14 02:51:57;;;;;;;;;;;21.50;99.90;;;;;;4590387;19;19942;-59
2023/08/14 02:53:30;;;;;;;;;;;21.60;99.90;;;;;;4591337;19;20003;-59
2023/08/14 02:55:02;;;;;;;;;;;21.50;99.90;;;;;;4591370;19;19911;-59
2023/08/14 02:56:33;;;;;;;;;;;21.50;99.90;;;;;;4590754;19;20295;-59
2023/08/14 02:58:05;;;;;;;;;;;21.50;99.90;;;;;;4591536;19;19922;-59
2023/08/14 02:59:37;;;;;;;;;;;21.60;99.90;;;;;;4591666;19;20008;-59
2023/08/14 03:01:09;;;;;;;;;;;21.60;99.90;;;;;;4591509;19;20372;-59
2023/08/14 03:02:43;;;;;;;;;;;21.60;99.90;;;;;;4589777;19;20240;-59
2023/08/14 03:04:14;;;;;;;;;;;21.60;99.90;;;;;;4591407;19;19907;-59
2023/08/14 03:05:46;;;;;;;;;;;21.60;99.90;;;;;;4591357;19;20214;-59
2023/08/14 03:07:18;;;;;;;;;;;21.60;99.90;;;;;;4591406;19;19915;-59
2023/08/14 03:08:49;;;;;;;;;;;21.60;99.90;;;;;;4591434;19;19918;-59
2023/08/14 03:10:22;;;;;;;;;;;21.60;99.90;;;;;;4591403;19;19926;-59
2023/08/14 03:11:54;;;;;;;;;;;21.60;99.90;;;;;;4590358;19;19914;-59
2023/08/14 03:13:25;;;;;;;;;;;21.60;99.90;;;;;;4591349;19;19992;-59
2023/08/14 03:14:56;;;;;;;;;;;21.60;99.90;;;;;;4593753;19;19922;-59
2023/08/14 03:16:28;;;;;;;;;;;21.60;99.90;;;;;;4594928;19;19911;-59
2023/08/14 03:17:59;;;;;;;;;;;21.60;99.90;;;;;;4595857;19;19922;-59
2023/08/14 03:19:30;;;;;;;;;;;21.60;99.90;;;;;;4595760;19;19914;-59
2023/08/14 03:21:02;;;;;;;;;;;21.60;99.90;;;;;;4595927;19;19922;-59
2023/08/14 03:22:33;;;;;;;;;;;21.60;99.90;;;;;;4593864;19;19984;-59
2023/08/14 03:24:05;;;;;;;;;;;21.60;99.90;;;;;;4595696;19;19922;-59
2023/08/14 03:25:36;;;;;;;;;;;21.60;99.90;;;;;;4595608;19;19929;-59
2023/08/14 03:27:08;;;;;;;;;;;21.60;99.90;;;;;;4595610;19;19922;-59
2023/08/14 03:28:39;;;;;;;;;;;21.60;99.90;;;;;;4595621;19;19974;-59
2023/08/14 03:30:12;;;;;;;;;;;21.60;99.90;;;;;;4595570;19;19918;-59
2023/08/14 03:31:43;;;;;;;;;;;21.60;99.90;;;;;;4594619;19;19915;-59
2023/08/14 03:33:15;;;;;;;;;;;21.60;99.90;;;;;;4595522;19;19915;-59
2023/08/14 03:34:46;;;;;;;;;;;21.60;99.90;;;;;;4595418;19;20307;-59
2023/08/14 03:36:17;;;;;;;;;;;21.60;99.90;;;;;;4594780;19;19974;-59
2023/08/14 03:37:50;;;;;;;;;;;21.60;99.90;;;;;;4595367;19;19918;-59
2023/08/14 03:39:22;;;;;;;;;;;21.60;99.90;;;;;;4595367;19;20302;-59
2023/08/14 03:40:53;;;;;;;;;;;21.60;99.90;;;;;;4596276;19;19951;-59
2023/08/14 03:42:24;;;;;;;;;;;21.60;99.90;;;;;;4595965;19;19915;-59
2023/08/14 03:43:56;;;;;;;;;;;21.60;99.90;;;;;;4596782;19;19923;-59
2023/08/14 03:45:28;;;;;;;;;;;21.60;99.90;;;;;;4593123;19;19915;-59
2023/08/14 03:47:00;;;;;;;;;;;21.60;99.90;;;;;;4595318;19;19926;-59
2023/08/14 03:48:33;;;;;;;;;;;21.60;99.90;;;;;;4595288;19;20310;-59
2023/08/14 03:50:05;;;;;;;;;;;21.60;99.90;;;;;;4595215;19;19914;-59
2023/08/14 03:51:37;;;;;;;;;;;21.60;99.90;;;;;;4594318;19;19917;-59
2023/08/14 03:53:10;;;;;;;;;;;21.60;99.90;;;;;;4595249;19;19919;-59
2023/08/14 03:54:42;;;;;;;;;;;21.60;99.90;;;;;;4595153;19;19944;-58
2023/08/14 03:56:14;;;;;;;;;;;21.60;99.90;;;;;;4594630;19;19911;-59
2023/08/14 03:57:47;;;;;;;;;;;21.60;99.90;;;;;;4595082;19;19915;-58
2023/08/14 03:59:19;;;;;;;;;;;21.60;99.90;;;;;;4595048;19;19914;-58
2023/08/14 04:00:51;;;;;;;;;;;21.60;99.90;;;;;;4594989;19;19922;-58
2023/08/14 04:02:23;;;;;;;;;;;21.60;99.90;;;;;;4593215;19;19932;-59
2023/08/14 04:03:56;;;;;;;;;;;21.60;99.90;;;;;;4594998;19;19929;-59
2023/08/14 04:05:28;;;;;;;;;;;21.60;99.90;;;;;;4594859;19;20306;-59
2023/08/14 04:07:02;;;;;;;;;;;21.60;99.90;;;;;;4594874;19;19919;-59
2023/08/14 04:08:34;;;;;;;;;;;21.60;99.90;;;;;;4594977;19;20364;-59
2023/08/14 04:10:06;;;;;;;;;;;21.60;99.90;;;;;;4594025;19;19922;-58
2023/08/14 04:11:37;;;;;;;;;;;21.60;99.90;;;;;;4588424;19;19923;-59
2023/08/14 04:13:09;;;;;;;;;;;21.60;99.90;;;;;;4591467;19;19945;-59
2023/08/14 04:14:40;;;;;;;;;;;21.60;99.90;;;;;;4592955;19;20314;-59
2023/08/14 04:16:13;;;;;;;;;;;21.60;99.90;;;;;;4592147;19;19911;-59
2023/08/14 04:17:45;;;;;;;;;;;21.60;99.90;;;;;;4592982;19;19918;-59
2023/08/14 04:19:18;;;;;;;;;;;21.60;99.90;;;;;;4590990;19;20233;-59
2023/08/14 04:20:50;;;;;;;;;;;21.60;99.90;;;;;;4590230;19;19918;-59
2023/08/14 04:22:22;;;;;;;;;;;21.60;99.90;;;;;;4591963;19;19921;-59
2023/08/14 04:23:54;;;;;;;;;;;21.80;99.90;;;;;;4592417;19;19919;-59
2023/08/14 04:25:28;;;;;;;;;;;21.90;99.90;;;;;;4592214;19;19924;-58
2023/08/14 04:27:01;;;;;;;;;;;21.90;99.90;;;;;;4590090;19;19922;-58
2023/08/14 04:28:32;;;;;;;;;;;22.00;99.90;;;;;;4592186;19;19978;-59
2023/08/14 04:30:05;;;;;;;;;;;22.00;99.90;;;;;;4591080;19;19914;-57
2023/08/14 04:31:37;;;;;;;;;;;22.10;99.90;;;;;;4591997;19;20258;-59
2023/08/14 04:33:10;;;;;;;;;;;22.10;99.90;;;;;;4591340;19;19929;-59
2023/08/14 04:34:42;;;;;;;;;;;22.10;99.90;;;;;;4592332;19;19923;-59
2023/08/14 04:36:13;;;;;;;;;;;22.20;99.90;;;;;;4591017;19;19915;-59
2023/08/14 04:37:44;;;;;;;;;;;22.20;99.90;;;;;;4590990;19;19914;-59
2023/08/14 04:39:16;;;;;;;;;;;22.20;99.90;;;;;;4591465;19;19910;-59
2023/08/14 04:40:47;;;;;;;;;;;22.20;99.90;;;;;;4591649;19;20363;-59
2023/08/14 04:42:19;;;;;;;;;;;22.20;99.90;;;;;;4590674;19;19998;-59
2023/08/14 04:43:51;;;;;;;;;;;22.30;99.90;;;;;;4591731;19;19919;-59
2023/08/14 04:45:22;;;;;;;;;;;22.30;99.90;;;;;;4590817;19;19929;-59
2023/08/14 04:46:53;;;;;;;;;;;22.30;99.90;;;;;;4592314;19;20440;-59
2023/08/14 04:48:25;;;;;;;;;;;22.30;99.90;;;;;;4591374;19;19939;-59
2023/08/14 04:49:56;;;;;;;;;;;22.30;99.90;;;;;;4591521;19;19986;-59
2023/08/14 04:51:28;;;;;;;;;;;22.30;99.90;;;;;;4590256;19;19914;-59
2023/08/14 04:53:01;;;;;;;;;;;22.30;99.90;;;;;;4591566;19;19915;-59
2023/08/14 04:54:34;;;;;;;;;;;22.30;99.90;;;;;;4590739;19;19923;-59
2023/08/14 04:56:08;;;;;;;;;;;22.30;99.90;;;;;;4591317;19;19998;-59
2023/08/14 04:57:40;;;;;;;;;;;22.30;99.90;;;;;;4591659;19;19918;-59
2023/08/14 04:59:11;;;;;;;;;;;22.30;99.90;;;;;;4591277;19;19965;-58
2023/08/14 05:00:42;;;;;;;;;;;22.30;99.90;;;;;;4591705;19;19925;-59
2023/08/14 05:02:14;;;;;;;;;;;22.40;99.90;;;;;;4589812;19;19926;-59
2023/08/14 05:03:46;;;;;;;;;;;22.40;99.90;;;;;;4590072;19;20208;-58
2023/08/14 05:05:19;;;;;;;;;;;22.40;99.90;;;;;;4592172;19;19964;-59
2023/08/14 05:06:51;;;;;;;;;;;22.40;99.90;;;;;;4590379;19;20007;-57
2023/08/14 05:08:22;;;;;;;;;;;22.40;99.90;;;;;;4591716;19;19937;-58
2023/08/14 05:09:54;;;;;;;;;;;22.50;99.90;;;;;;4591602;19;19929;-58
2023/08/14 05:11:25;;;;;;;;;;;22.50;99.90;;;;;;4590585;19;19919;-59
2023/08/14 05:12:56;;;;;;;;;;;22.40;99.90;;;;;;4591841;19;19922;-59
2023/08/14 05:14:28;;;;;;;;;;;22.30;99.90;;;;;;4590926;19;20059;-58
2023/08/14 05:16:01;;;;;;;;;;;22.20;99.90;;;;;;4590140;19;19919;-59
2023/08/14 05:17:33;;;;;;;;;;;22.10;99.90;;;;;;4591511;19;19925;-58
2023/08/14 05:19:04;;;;;;;;;;;22.10;99.90;;;;;;4590267;19;19930;-58
2023/08/14 05:20:36;;;;;;;;;;;22.10;99.90;;;;;;4590812;19;20599;-59
2023/08/14 05:22:07;;;;;;;;;;;22.00;99.90;;;;;;4588963;19;19922;-59
2023/08/14 05:23:39;;;;;;;;;;;22.00;99.90;;;;;;4589924;19;19941;-60
2023/08/14 05:25:12;;;;;;;;;;;22.10;99.90;;;;;;4590177;19;19974;-59
2023/08/14 05:26:43;;;;;;;;;;;22.30;99.90;;;;;;4590221;19;19919;-59
2023/08/14 05:28:15;;;;;;;;;;;22.50;99.90;;;;;;4590173;19;19990;-59
2023/08/14 05:29:47;;;;;;;;;;;22.60;99.90;;;;;;4589772;19;19922;-60
2023/08/14 05:31:18;;;;;;;;;;;22.80;99.90;;;;;;4589141;19;19918;-60
2023/08/14 05:32:51;;;;;;;;;;;22.90;99.90;;;;;;4590783;19;19931;-60
2023/08/14 05:34:23;;;;;;;;;;;23.10;99.90;;;;;;4591624;19;19915;-60
2023/08/14 05:35:54;;;;;;;;;;;23.20;99.90;;;;;;4590059;19;20214;-59
2023/08/14 05:37:26;;;;;;;;;;;23.30;99.90;;;;;;4590187;19;19941;-59
2023/08/14 05:38:59;;;;;;;;;;;23.40;99.90;;;;;;4590370;19;20335;-59
2023/08/14 05:40:30;;;;;;;;;;;23.50;99.90;;;;;;4590069;19;19918;-59
2023/08/14 05:42:01;;;;;;;;;;;23.50;99.90;;;;;;4590230;19;20227;-59
2023/08/14 05:43:34;;;;;;;;;;;23.60;99.90;;;;;;4590676;19;19938;-60
2023/08/14 05:45:06;;;;;;;;;;;23.70;99.90;;;;;;4589299;19;20491;-60
2023/08/14 05:46:41;;;;;;;;;;;23.70;99.90;;;;;;4590463;19;20439;-60
2023/08/14 05:48:12;;;;;;;;;;;23.60;99.90;;;;;;4589430;19;19923;-59
2023/08/14 05:49:45;;;;;;;;;;;23.70;99.90;;;;;;4590192;19;19938;-59
2023/08/14 05:51:16;;;;;;;;;;;23.70;99.90;;;;;;4588333;19;19953;-60
2023/08/14 05:52:48;;;;;;;;;;;23.70;99.90;;;;;;4591019;19;19927;-59
2023/08/14 05:54:21;;;;;;;;;;;23.80;99.90;;;;;;4590357;19;20569;-60
2023/08/14 05:55:53;;;;;;;;;;;23.80;99.90;;;;;;4590075;19;20231;-60
2023/08/14 05:57:24;;;;;;;;;;;23.80;99.90;;;;;;4589054;19;19992;-60
2023/08/14 05:58:57;;;;;;;;;;;23.90;99.90;;;;;;4590783;19;19927;-60
2023/08/14 06:00:29;;;;;;;;;;;23.80;99.90;;;;;;4590223;19;19922;-60
2023/08/14 10:08:17;;;;;;;;;;;23.50;99.90;;;;;;4592477;19;20174;-68
2023/08/14 10:09:51;;;;;;;;;;;23.50;99.90;;;;;;4592476;19;19911;-61
2023/08/14 10:29:26;;;;;;;;;;;22.90;99.90;;;;;;4553044;19;19936;-74
2023/08/14 10:30:58;;;;;;;;;;;22.50;99.90;;;;;;4595915;19;19996;-72
2023/08/14 10:32:30;;;;;;;;;;;21.80;99.90;;;;;;4597113;19;19911;-59
2023/08/14 10:34:01;;;;;;;;;;;21.60;99.90;;;;;;4597313;19;19930;-65
2023/08/14 10:35:53;;;;;;;;;;;21.60;99.90;;;;;;4596301;19;19977;-67
2023/08/14 10:37:29;;;;;;;;;;;21.60;99.90;;;;;;4597553;19;19944;-60
2023/08/14 10:39:10;;;;;;;;;;;21.80;99.90;;;;;;4595387;19;19915;-69
2023/08/14 10:40:52;;;;;;;;;;;21.80;99.90;;;;;;4595884;19;19923;-64
2023/08/14 10:42:23;;;;;;;;;;;21.80;99.90;;;;;;4596042;19;20360;-70
2023/08/14 10:43:55;;;;;;;;;;;21.90;99.90;;;;;;4595890;19;19921;-69
2023/08/14 10:45:27;;;;;;;;;;;21.80;99.90;;;;;;4595491;19;19940;-59
2023/08/14 10:47:06;;;;;;;;;;;21.80;99.90;;;;;;4595518;19;19936;-59
2023/08/14 10:48:39;;;;;;;;;;;21.90;99.90;;;;;;4596965;19;19922;-63
2023/08/14 10:50:12;;;;;;;;;;;22.00;99.90;;;;;;4595645;19;19922;-59
2023/08/14 10:51:43;;;;;;;;;;;22.10;99.90;;;;;;4596523;19;19914;-59
2023/08/14 10:53:17;;;;;;;;;;;22.20;99.90;;;;;;4596818;19;19914;-60
2023/08/14 10:54:51;;;;;;;;;;;22.20;99.90;;;;;;4596913;19;19922;-60
2023/08/14 10:56:22;;;;;;;;;;;22.40;99.90;;;;;;4596822;19;19970;-60
2023/08/14 10:57:54;;;;;;;;;;;22.50;99.90;;;;;;4595411;19;19918;-60
2023/08/14 10:59:31;;;;;;;;;;;22.60;99.90;;;;;;4595337;19;19918;-60
2023/08/14 11:01:07;;;;;;;;;;;22.60;99.90;;;;;;4596806;19;19915;-60
2023/08/14 11:02:41;;;;;;;;;;;22.80;99.90;;;;;;4596713;19;19911;-60
2023/08/14 11:04:13;;;;;;;;;;;22.80;99.90;;;;;;4596694;19;19922;-60
2023/08/14 11:05:44;;;;;;;;;;;22.90;99.90;;;;;;4596626;19;19925;-60
2023/08/14 11:07:17;;;;;;;;;;;22.80;99.90;;;;;;4593889;19;19915;-60
2023/08/14 11:08:50;;;;;;;;;;;22.80;99.90;;;;;;4595967;19;19942;-60
2023/08/14 11:10:22;;;;;;;;;;;22.90;99.90;;;;;;4596528;19;19919;-60
2023/08/14 11:11:55;;;;;;;;;;;22.90;99.90;;;;;;4596475;19;19918;-60
2023/08/14 11:13:27;;;;;;;;;;;23.00;99.90;;;;;;4596473;19;19998;-60
2023/08/14 11:14:59;;;;;;;;;;;23.00;99.90;;;;;;4596474;19;19918;-60
2023/08/14 11:16:30;;;;;;;;;;;23.00;99.90;;;;;;4596437;19;19922;-60
2023/08/14 11:18:05;;;;;;;;;;;23.10;99.90;;;;;;4596418;19;19919;-60
2023/08/14 11:19:39;;;;;;;;;;;23.10;99.90;;;;;;4595285;19;20332;-60
2023/08/14 11:21:11;;;;;;;;;;;23.10;99.90;;;;;;4596347;19;20412;-60
2023/08/14 11:22:44;;;;;;;;;;;23.10;99.90;;;;;;4596336;19;19935;-60
2023/08/14 11:24:16;;;;;;;;;;;23.10;99.90;;;;;;4596260;19;20308;-60
2023/08/14 11:25:48;;;;;;;;;;;23.20;99.90;;;;;;4596276;19;19915;-60
2023/08/14 11:27:20;;;;;;;;;;;23.20;99.90;;;;;;4594834;19;19946;-60
2023/08/14 11:28:51;;;;;;;;;;;23.30;99.90;;;;;;4595632;19;20290;-60
2023/08/14 11:30:23;;;;;;;;;;;23.40;99.90;;;;;;4596174;19;20294;-60
2023/08/14 11:31:55;;;;;;;;;;;23.50;99.90;;;;;;4596212;19;19974;-60
2023/08/14 11:33:26;;;;;;;;;;;23.50;99.90;;;;;;4596080;19;19918;-60
2023/08/14 11:34:59;;;;;;;;;;;23.50;99.90;;;;;;4595645;19;20294;-60
2023/08/14 11:36:32;;;;;;;;;;;23.50;99.90;;;;;;4595627;19;20297;-60
2023/08/14 11:38:04;;;;;;;;;;;23.60;99.90;;;;;;4595987;19;20214;-60
2023/08/14 11:39:36;;;;;;;;;;;23.60;99.90;;;;;;4594876;19;19918;-60
2023/08/14 11:41:07;;;;;;;;;;;23.60;99.90;;;;;;4595923;19;19974;-60
2023/08/14 11:42:39;;;;;;;;;;;23.60;99.90;;;;;;4595915;19;19982;-60
2023/08/14 11:44:11;;;;;;;;;;;23.70;99.90;;;;;;4595874;19;20221;-60
2023/08/14 11:45:43;;;;;;;;;;;23.70;99.90;;;;;;4595810;19;20310;-60
2023/08/14 11:47:15;;;;;;;;;;;23.70;99.90;;;;;;4592086;19;20245;-60
2023/08/14 11:48:46;;;;;;;;;;;23.70;99.90;;;;;;4593319;19;19914;-60
2023/08/14 11:50:18;;;;;;;;;;;23.60;99.90;;;;;;4593464;19;19929;-60
2023/08/14 11:51:50;;;;;;;;;;;23.70;99.90;;;;;;4593504;19;19971;-60
2023/08/14 11:53:21;;;;;;;;;;;23.70;99.90;;;;;;4593458;19;20310;-60
2023/08/14 11:54:54;;;;;;;;;;;23.70;99.90;;;;;;4593388;19;20020;-60
2023/08/14 11:56:26;;;;;;;;;;;23.70;99.90;;;;;;4593419;19;19926;-60
2023/08/14 11:57:59;;;;;;;;;;;23.70;99.90;;;;;;4593424;19;20352;-60
2023/08/14 11:59:30;;;;;;;;;;;23.80;99.90;;;;;;4592265;19;19922;-60
2023/08/14 12:01:02;;;;;;;;;;;23.80;99.90;;;;;;4593274;19;19922;-60
2023/08/14 12:02:33;;;;;;;;;;;23.80;99.90;;;;;;4593303;19;19918;-60
2023/08/14 12:04:06;;;;;;;;;;;23.70;99.90;;;;;;4593124;19;19915;-60
2023/08/14 12:05:37;;;;;;;;;;;23.80;99.90;;;;;;4593232;19;19971;-60
2023/08/14 12:07:08;;;;;;;;;;;23.80;99.90;;;;;;4592083;19;19933;-60
2023/08/14 12:08:40;;;;;;;;;;;23.80;99.90;;;;;;4592989;19;19911;-60
2023/08/14 12:10:14;;;;;;;;;;;23.80;99.90;;;;;;4593089;19;20290;-60
2023/08/14 12:11:45;;;;;;;;;;;23.80;99.90;;;;;;4593444;19;19970;-60
2023/08/14 12:13:20;;;;;;;;;;;23.80;99.90;;;;;;4595314;19;19919;-60
2023/08/14 12:14:52;;;;;;;;;;;23.80;99.90;;;;;;4595257;19;19918;-60
2023/08/14 12:16:24;;;;;;;;;;;23.80;99.90;;;;;;4595252;19;19922;-60
2023/08/14 12:17:57;;;;;;;;;;;23.80;99.90;;;;;;4595203;19;19924;-60
2023/08/14 12:19:29;;;;;;;;;;;23.80;99.90;;;;;;4594310;19;19918;-60
2023/08/14 12:21:01;;;;;;;;;;;23.80;99.90;;;;;;4593807;19;19914;-60
2023/08/14 12:22:34;;;;;;;;;;;23.80;99.90;;;;;;4594699;19;19940;-60
2023/08/14 12:24:06;;;;;;;;;;;23.80;99.90;;;;;;4595131;19;19919;-60
2023/08/14 12:25:38;;;;;;;;;;;23.80;99.90;;;;;;4595006;19;20302;-60
2023/08/14 12:27:23;;;;;;;;;;;23.80;99.90;;;;;;4594026;19;19992;-60
2023/08/14 12:28:55;;;;;;;;;;;23.90;99.90;;;;;;4592723;19;19919;-60
2023/08/14 12:30:27;;;;;;;;;;;23.90;99.90;;;;;;4593261;19;19943;-60
2023/08/14 12:32:00;;;;;;;;;;;23.90;99.90;;;;;;4594052;19;19915;-60
2023/08/14 12:33:32;;;;;;;;;;;23.90;99.90;;;;;;4594465;19;19919;-60
2023/08/14 12:35:05;;;;;;;;;;;23.90;99.90;;;;;;4594415;19;19915;-59
2023/08/14 12:36:37;;;;;;;;;;;23.90;99.90;;;;;;4594496;19;19996;-60
2023/08/14 12:38:09;;;;;;;;;;;23.90;99.90;;;;;;4594390;19;19922;-60
2023/08/14 12:39:43;;;;;;;;;;;23.90;99.90;;;;;;4593362;19;19966;-60
2023/08/14 12:41:16;;;;;;;;;;;23.90;99.90;;;;;;4594255;19;19932;-60
2023/08/14 12:42:48;;;;;;;;;;;23.90;99.90;;;;;;4594272;19;19950;-60
2023/08/14 12:44:20;;;;;;;;;;;23.90;99.90;;;;;;4594208;19;19919;-60
2023/08/14 12:45:52;;;;;;;;;;;23.90;99.90;;;;;;4594227;19;19929;-60
2023/08/14 12:47:24;;;;;;;;;;;23.90;99.90;;;;;;4590782;19;19923;-60
2023/08/14 12:48:56;;;;;;;;;;;23.80;99.90;;;;;;4593816;19;19919;-60
2023/08/14 12:50:28;;;;;;;;;;;23.80;99.90;;;;;;4594115;19;19917;-60
2023/08/14 12:52:00;;;;;;;;;;;23.90;99.90;;;;;;4594068;19;19915;-60
2023/08/14 12:53:32;;;;;;;;;;;23.90;99.90;;;;;;4593998;19;19915;-60
2023/08/14 12:55:05;;;;;;;;;;;23.90;99.90;;;;;;4594034;19;19919;-60
2023/08/14 12:56:37;;;;;;;;;;;23.90;99.90;;;;;;4593938;19;20014;-60
2023/08/14 12:58:09;;;;;;;;;;;23.90;99.90;;;;;;4592691;19;19922;-60
2023/08/14 12:59:42;;;;;;;;;;;23.90;99.90;;;;;;4592605;19;19944;-60
2023/08/14 13:01:14;;;;;;;;;;;23.90;99.90;;;;;;4593654;19;19914;-60
2023/08/14 13:02:46;;;;;;;;;;;23.90;99.90;;;;;;4593884;19;19921;-60
2023/08/14 13:04:19;;;;;;;;;;;24.00;99.90;;;;;;4593862;19;19929;-60
2023/08/14 13:05:51;;;;;;;;;;;23.90;99.90;;;;;;4593855;19;20202;-60
2023/08/14 13:07:23;;;;;;;;;;;23.90;99.90;;;;;;4592927;19;19915;-60
2023/08/14 13:08:55;;;;;;;;;;;24.00;99.90;;;;;;4593487;19;19944;-60
2023/08/14 13:10:27;;;;;;;;;;;23.90;99.90;;;;;;4593825;19;19935;-60
2023/08/14 13:12:00;;;;;;;;;;;24.00;99.90;;;;;;4593678;19;19948;-60
2023/08/14 13:13:33;;;;;;;;;;;23.90;99.90;;;;;;4593664;19;19932;-60
2023/08/14 13:15:06;;;;;;;;;;;24.00;99.90;;;;;;4593546;19;20206;-60
2023/08/14 13:16:38;;;;;;;;;;;23.90;99.90;;;;;;4593572;19;19910;-60
2023/08/14 13:18:10;;;;;;;;;;;24.00;99.90;;;;;;4593499;19;20354;-59
2023/08/14 13:19:41;;;;;;;;;;;24.00;99.90;;;;;;4592715;19;19911;-60
2023/08/14 13:21:13;;;;;;;;;;;24.00;99.90;;;;;;4593454;19;19974;-60
2023/08/14 13:22:45;;;;;;;;;;;24.00;99.90;;;;;;4593457;19;19922;-60